sensor_id;sensor_type;location;lat;lon;timestamp;temperature;humidity
20204;DHT22;10261;49.010;12.034;2023-04-03T00:00:40;7.60;99.90
20204;DHT22;10261;49.010;12.034;2023-04-03T00:01:42;7.60;99.90
20204;DHT22;10261;49.010;12.034;2023-04-03T00:02:45;7.60;99.90
20204;DHT22;10261;49.010;12.034;2023-04-03T00:03:47;7.60;99.90
20204;DHT22;10261;49.010;12.034;2023-04-03T00:04:50;7.60;99.90
20204;DHT22;10261;49.010;12.034;2023-04-03T00:05:53;7.60;99.90
20204;DHT22;10261;49.010;12.034;2023-04-03T00:06:56;7.50;99.90
20204;DHT22;10261;49.010;12.034;2023-04-03T00:07:59;7.50;99.90
20204;DHT22;10261;49.010;12.034;2023-04-03T00:09:01;7.50;99.90
20204;DHT22;10261;49.010;12.034;2023-04-03T00:10:05;7.50;99.90
20204;DHT22;10261;49.010;12.034;2023-04-03T00:11:08;7.60;99.90
20204;DHT22;10261;49.010;12.034;2023-04-03T00:12:11;7.60;99.90
20204;DHT22;10261;49.010;12.034;2023-04-03T00:13:13;7.50;99.90
20204;DHT22;10261;49.010;12.034;2023-04-03T00:14:17;7.50;99.90
20204;DHT22;10261;49.010;12.034;2023-04-03T00:15:19;7.40;99.90
20204;DHT22;10261;49.010;12.034;2023-04-03T00:16:23;7.40;99.90
20204;DHT22;10261;49.010;12.034;2023-04-03T00:17:26;7.40;99.90
20204;DHT22;10261;49.010;12.034;2023-04-03T00:18:30;7.50;99.90
20204;DHT22;10261;49.010;12.034;2023-04-03T00:19:33;7.50;99.90
20204;DHT22;10261;49.010;12.034;2023-04-03T00:20:35;7.50;99.90
20204;DHT22;10261;49.010;12.034;2023-04-03T00:21:39;7.50;99.90
20204;DHT22;10261;49.010;12.034;2023-04-03T00:22:41;7.50;99.90
20204;DHT22;10261;49.010;12.034;2023-04-03T00:23:44;7.60;99.90
20204;DHT22;10261;49.010;12.034;2023-04-03T00:25:06;7.50;99.90
20204;DHT22;10261;49.010;12.034;2023-04-03T00:26:10;7.40;99.90
20204;DHT22;10261;49.010;12.034;2023-04-03T00:27:12;7.40;99.90
20204;DHT22;10261;49.010;12.034;2023-04-03T00:28:15;7.30;99.90
20204;DHT22;10261;49.010;12.034;2023-04-03T00:29:17;7.40;99.90
20204;DHT22;10261;49.010;12.034;2023-04-03T00:30:21;7.50;99.90
20204;DHT22;10261;49.010;12.034;2023-04-03T00:31:24;7.50;99.90
20204;DHT22;10261;49.010;12.034;2023-04-03T00:32:27;7.40;99.90
20204;DHT22;10261;49.010;12.034;2023-04-03T00:33:29;7.50;99.90
20204;DHT22;10261;49.010;12.034;2023-04-03T00:34:32;7.50;99.90
20204;DHT22;10261;49.010;12.034;2023-04-03T00:35:35;7.50;99.90
20204;DHT22;10261;49.010;12.034;2023-04-03T00:36:38;7.40;99.90
20204;DHT22;10261;49.010;12.034;2023-04-03T00:37:40;7.40;99.90
20204;DHT22;10261;49.010;12.034;2023-04-03T00:38:43;7.50;99.90
20204;DHT22;10261;49.010;12.034;2023-04-03T00:39:45;7.50;99.90
20204;DHT22;10261;49.010;12.034;2023-04-03T00:40:49;7.50;99.90
20204;DHT22;10261;49.010;12.034;2023-04-03T00:41:51;7.40;99.90
20204;DHT22;10261;49.010;12.034;2023-04-03T00:42:57;7.40;99.90
20204;DHT22;10261;49.010;12.034;2023-04-03T00:44:00;7.40;99.90
20204;DHT22;10261;49.010;12.034;2023-04-03T00:45:27;7.50;99.90
20204;DHT22;10261;49.010;12.034;2023-04-03T00:46:30;7.40;99.90
20204;DHT22;10261;49.010;12.034;2023-04-03T00:47:34;7.40;99.90
20204;DHT22;10261;49.010;12.034;2023-04-03T00:48:39;7.40;99.90
20204;DHT22;10261;49.010;12.034;2023-04-03T00:49:43;7.40;99.90
20204;DHT22;10261;49.010;12.034;2023-04-03T00:50:46;7.40;99.90
20204;DHT22;10261;49.010;12.034;2023-04-03T00:51:49;7.50;99.90
20204;DHT22;10261;49.010;12.034;2023-04-03T00:52:54;7.40;99.90
20204;DHT22;10261;49.010;12.034;2023-04-03T00:53:59;7.40;99.90
20204;DHT22;10261;49.010;12.034;2023-04-03T00:55:05;7.40;99.90
20204;DHT22;10261;49.010;12.034;2023-04-03T00:56:10;7.40;99.90
20204;DHT22;10261;49.010;12.034;2023-04-03T00:57:17;7.30;99.90
20204;DHT22;10261;49.010;12.034;2023-04-03T00:58:20;7.40;99.90
20204;DHT22;10261;49.010;12.034;2023-04-03T00:59:29;7.40;99.90
20204;DHT22;10261;49.010;12.034;2023-04-03T01:00:33;7.40;99.90
20204;DHT22;10261;49.010;12.034;2023-04-03T01:01:38;7.40;99.90
20204;DHT22;10261;49.010;12.034;2023-04-03T01:02:40;7.30;99.90
20204;DHT22;10261;49.010;12.034;2023-04-03T01:03:43;7.30;99.90
20204;DHT22;10261;49.010;12.034;2023-04-03T01:04:45;7.40;99.90
20204;DHT22;10261;49.010;12.034;2023-04-03T01:05:49;7.30;99.90
20204;DHT22;10261;49.010;12.034;2023-04-03T01:06:51;7.30;99.90
20204;DHT22;10261;49.010;12.034;2023-04-03T01:07:54;7.20;99.90
20204;DHT22;10261;49.010;12.034;2023-04-03T01:08:57;7.20;99.90
20204;DHT22;10261;49.010;12.034;2023-04-03T01:10:02;7.30;99.90
20204;DHT22;10261;49.010;12.034;2023-04-03T01:11:05;7.30;99.90
20204;DHT22;10261;49.010;12.034;2023-04-03T01:12:15;7.30;99.90
20204;DHT22;10261;49.010;12.034;2023-04-03T01:13:24;7.30;99.90
20204;DHT22;10261;49.010;12.034;2023-04-03T01:14:27;7.20;99.90
20204;DHT22;10261;49.010;12.034;2023-04-03T01:15:29;7.30;99.90
20204;DHT22;10261;49.010;12.034;2023-04-03T01:16:38;7.30;99.90
20204;DHT22;10261;49.010;12.034;2023-04-03T01:17:42;7.30;99.90
20204;DHT22;10261;49.010;12.034;2023-04-03T01:18:46;7.30;99.90
20204;DHT22;10261;49.010;12.034;2023-04-03T01:19:56;7.30;99.90
20204;DHT22;10261;49.010;12.034;2023-04-03T01:21:35;7.30;99.90
20204;DHT22;10261;49.010;12.034;2023-04-03T01:22:42;7.30;99.90
20204;DHT22;10261;49.010;12.034;2023-04-03T01:23:57;7.30;99.90
20204;DHT22;10261;49.010;12.034;2023-04-03T01:25:01;7.30;99.90
20204;DHT22;10261;49.010;12.034;2023-04-03T01:26:03;7.20;99.90
20204;DHT22;10261;49.010;12.034;2023-04-03T01:27:09;7.30;99.90
20204;DHT22;10261;49.010;12.034;2023-04-03T01:28:14;7.20;99.90
20204;DHT22;10261;49.010;12.034;2023-04-03T01:29:17;7.20;99.90
20204;DHT22;10261;49.010;12.034;2023-04-03T01:30:25;7.20;99.90
20204;DHT22;10261;49.010;12.034;2023-04-03T01:31:31;7.20;99.90
20204;DHT22;10261;49.010;12.034;2023-04-03T01:32:38;7.10;99.90
20204;DHT22;10261;49.010;12.034;2023-04-03T01:33:40;7.10;99.90
20204;DHT22;10261;49.010;12.034;2023-04-03T01:34:43;7.20;99.90
20204;DHT22;10261;49.010;12.034;2023-04-03T01:35:45;7.20;99.90
20204;DHT22;10261;49.010;12.034;2023-04-03T01:36:48;7.10;99.90
20204;DHT22;10261;49.010;12.034;2023-04-03T01:37:50;7.20;99.90
20204;DHT22;10261;49.010;12.034;2023-04-03T01:38:54;7.20;99.90
20204;DHT22;10261;49.010;12.034;2023-04-03T01:39:56;7.10;99.90
20204;DHT22;10261;49.010;12.034;2023-04-03T01:40:59;7.10;99.90
20204;DHT22;10261;49.010;12.034;2023-04-03T01:42:01;7.10;99.90
20204;DHT22;10261;49.010;12.034;2023-04-03T01:43:05;7.10;99.90
20204;DHT22;10261;49.010;12.034;2023-04-03T01:44:07;7.10;99.90
20204;DHT22;10261;49.010;12.034;2023-04-03T01:45:10;7.10;99.90
20204;DHT22;10261;49.010;12.034;2023-04-03T01:46:12;7.10;99.90
20204;DHT22;10261;49.010;12.034;2023-04-03T01:47:15;7.10;99.90
20204;DHT22;10261;49.010;12.034;2023-04-03T01:48:21;7.10;99.90
20204;DHT22;10261;49.010;12.034;2023-04-03T01:49:24;7.00;99.90
20204;DHT22;10261;49.010;12.034;2023-04-03T01:50:27;7.10;99.90
20204;DHT22;10261;49.010;12.034;2023-04-03T01:51:29;7.10;99.90
20204;DHT22;10261;49.010;12.034;2023-04-03T01:52:32;7.00;99.90
20204;DHT22;10261;49.010;12.034;2023-04-03T01:53:34;7.00;99.90
20204;DHT22;10261;49.010;12.034;2023-04-03T01:54:37;7.00;99.90
20204;DHT22;10261;49.010;12.034;2023-04-03T01:55:39;7.00;99.90
20204;DHT22;10261;49.010;12.034;2023-04-03T01:56:42;7.00;99.90
20204;DHT22;10261;49.010;12.034;2023-04-03T01:57:44;8.10;99.90
20204;DHT22;10261;49.010;12.034;2023-04-03T01:58:47;7.00;99.90
20204;DHT22;10261;49.010;12.034;2023-04-03T01:59:49;7.00;99.90
20204;DHT22;10261;49.010;12.034;2023-04-03T02:00:52;7.10;99.90
20204;DHT22;10261;49.010;12.034;2023-04-03T02:01:54;7.00;99.90
20204;DHT22;10261;49.010;12.034;2023-04-03T02:02:57;7.10;99.90
20204;DHT22;10261;49.010;12.034;2023-04-03T02:04:01;7.10;99.90
20204;DHT22;10261;49.010;12.034;2023-04-03T02:05:05;7.10;99.90
20204;DHT22;10261;49.010;12.034;2023-04-03T02:06:07;7.10;99.90
20204;DHT22;10261;49.010;12.034;2023-04-03T02:07:11;7.10;99.90
20204;DHT22;10261;49.010;12.034;2023-04-03T02:08:14;7.00;99.90
20204;DHT22;10261;49.010;12.034;2023-04-03T02:09:16;7.00;99.90
20204;DHT22;10261;49.010;12.034;2023-04-03T02:10:19;7.00;99.90
20204;DHT22;10261;49.010;12.034;2023-04-03T02:11:21;7.00;99.90
20204;DHT22;10261;49.010;12.034;2023-04-03T02:12:24;7.00;99.90
20204;DHT22;10261;49.010;12.034;2023-04-03T02:13:26;7.10;99.90
20204;DHT22;10261;49.010;12.034;2023-04-03T02:14:29;7.10;99.90
20204;DHT22;10261;49.010;12.034;2023-04-03T02:15:31;7.10;99.90
20204;DHT22;10261;49.010;12.034;2023-04-03T02:16:34;7.10;99.90
20204;DHT22;10261;49.010;12.034;2023-04-03T02:17:36;7.20;99.90
20204;DHT22;10261;49.010;12.034;2023-04-03T02:18:39;7.30;99.90
20204;DHT22;10261;49.010;12.034;2023-04-03T02:19:43;7.20;99.90
20204;DHT22;10261;49.010;12.034;2023-04-03T02:20:46;7.10;99.90
20204;DHT22;10261;49.010;12.034;2023-04-03T02:21:49;7.10;99.90
20204;DHT22;10261;49.010;12.034;2023-04-03T02:22:51;7.10;99.90
20204;DHT22;10261;49.010;12.034;2023-04-03T02:23:54;7.10;99.90
20204;DHT22;10261;49.010;12.034;2023-04-03T02:24:56;7.10;99.90
20204;DHT22;10261;49.010;12.034;2023-04-03T02:26:06;7.00;99.90
20204;DHT22;10261;49.010;12.034;2023-04-03T02:27:10;7.00;99.90
20204;DHT22;10261;49.010;12.034;2023-04-03T02:28:12;7.00;99.90
20204;DHT22;10261;49.010;12.034;2023-04-03T02:29:15;7.10;99.90
20204;DHT22;10261;49.010;12.034;2023-04-03T02:30:17;7.10;99.90
20204;DHT22;10261;49.010;12.034;2023-04-03T02:31:21;7.10;99.90
20204;DHT22;10261;49.010;12.034;2023-04-03T02:32:23;7.10;99.90
20204;DHT22;10261;49.010;12.034;2023-04-03T02:33:26;7.00;99.90
20204;DHT22;10261;49.010;12.034;2023-04-03T02:34:28;7.00;99.90
20204;DHT22;10261;49.010;12.034;2023-04-03T02:35:33;7.10;99.90
20204;DHT22;10261;49.010;12.034;2023-04-03T02:36:35;7.10;99.90
20204;DHT22;10261;49.010;12.034;2023-04-03T02:37:38;7.10;99.90
20204;DHT22;10261;49.010;12.034;2023-04-03T02:38:40;7.00;99.90
20204;DHT22;10261;49.010;12.034;2023-04-03T02:39:43;6.00;99.90
20204;DHT22;10261;49.010;12.034;2023-04-03T02:40:45;7.10;99.90
20204;DHT22;10261;49.010;12.034;2023-04-03T02:41:48;7.10;99.90
20204;DHT22;10261;49.010;12.034;2023-04-03T02:42:50;7.10;99.90
20204;DHT22;10261;49.010;12.034;2023-04-03T02:43:53;7.10;99.90
20204;DHT22;10261;49.010;12.034;2023-04-03T02:44:55;7.10;99.90
20204;DHT22;10261;49.010;12.034;2023-04-03T02:46:01;7.10;99.90
20204;DHT22;10261;49.010;12.034;2023-04-03T02:47:03;7.10;99.90
20204;DHT22;10261;49.010;12.034;2023-04-03T02:48:06;7.10;99.90
20204;DHT22;10261;49.010;12.034;2023-04-03T02:49:08;7.10;99.90
20204;DHT22;10261;49.010;12.034;2023-04-03T02:50:11;7.00;99.90
20204;DHT22;10261;49.010;12.034;2023-04-03T02:51:14;7.00;99.90
20204;DHT22;10261;49.010;12.034;2023-04-03T02:52:17;7.00;99.90
20204;DHT22;10261;49.010;12.034;2023-04-03T02:53:19;7.00;99.90
20204;DHT22;10261;49.010;12.034;2023-04-03T02:54:23;7.00;99.90
20204;DHT22;10261;49.010;12.034;2023-04-03T02:55:25;7.00;99.90
20204;DHT22;10261;49.010;12.034;2023-04-03T02:56:29;7.00;99.90
20204;DHT22;10261;49.010;12.034;2023-04-03T02:57:31;7.00;99.90
20204;DHT22;10261;49.010;12.034;2023-04-03T02:58:34;7.00;99.90
20204;DHT22;10261;49.010;12.034;2023-04-03T02:59:37;7.00;99.90
20204;DHT22;10261;49.010;12.034;2023-04-03T03:00:42;7.00;99.90
20204;DHT22;10261;49.010;12.034;2023-04-03T03:01:44;7.10;99.90
20204;DHT22;10261;49.010;12.034;2023-04-03T03:02:48;7.10;99.90
20204;DHT22;10261;49.010;12.034;2023-04-03T03:03:50;7.10;99.90
20204;DHT22;10261;49.010;12.034;2023-04-03T03:04:53;7.10;99.90
20204;DHT22;10261;49.010;12.034;2023-04-03T03:06:03;7.00;99.90
20204;DHT22;10261;49.010;12.034;2023-04-03T03:07:07;7.00;99.90
20204;DHT22;10261;49.010;12.034;2023-04-03T03:08:09;7.10;99.90
20204;DHT22;10261;49.010;12.034;2023-04-03T03:09:12;7.10;99.90
20204;DHT22;10261;49.010;12.034;2023-04-03T03:10:14;7.10;99.90
20204;DHT22;10261;49.010;12.034;2023-04-03T03:11:17;7.10;99.90
20204;DHT22;10261;49.010;12.034;2023-04-03T03:12:19;7.10;99.90
20204;DHT22;10261;49.010;12.034;2023-04-03T03:13:23;7.10;99.90
20204;DHT22;10261;49.010;12.034;2023-04-03T03:14:26;7.00;99.90
20204;DHT22;10261;49.010;12.034;2023-04-03T03:15:29;7.00;99.90
20204;DHT22;10261;49.010;12.034;2023-04-03T03:16:31;7.00;99.90
20204;DHT22;10261;49.010;12.034;2023-04-03T03:17:34;7.00;99.90
20204;DHT22;10261;49.010;12.034;2023-04-03T03:18:37;7.00;99.90
20204;DHT22;10261;49.010;12.034;2023-04-03T03:19:41;6.90;99.90
20204;DHT22;10261;49.010;12.034;2023-04-03T03:20:43;6.90;99.90
20204;DHT22;10261;49.010;12.034;2023-04-03T03:21:46;7.00;99.90
20204;DHT22;10261;49.010;12.034;2023-04-03T03:22:50;7.00;99.90
20204;DHT22;10261;49.010;12.034;2023-04-03T03:23:53;6.90;99.90
20204;DHT22;10261;49.010;12.034;2023-04-03T03:24:55;7.00;99.90
20204;DHT22;10261;49.010;12.034;2023-04-03T03:26:00;6.90;99.90
20204;DHT22;10261;49.010;12.034;2023-04-03T03:27:04;6.90;99.90
20204;DHT22;10261;49.010;12.034;2023-04-03T03:28:07;6.90;99.90
20204;DHT22;10261;49.010;12.034;2023-04-03T03:29:09;6.90;99.90
20204;DHT22;10261;49.010;12.034;2023-04-03T03:30:12;6.90;99.90
20204;DHT22;10261;49.010;12.034;2023-04-03T03:31:14;7.00;99.90
20204;DHT22;10261;49.010;12.034;2023-04-03T03:32:17;6.90;99.90
20204;DHT22;10261;49.010;12.034;2023-04-03T03:33:19;7.00;99.90
20204;DHT22;10261;49.010;12.034;2023-04-03T03:34:22;7.00;99.90
20204;DHT22;10261;49.010;12.034;2023-04-03T03:35:25;7.00;99.90
20204;DHT22;10261;49.010;12.034;2023-04-03T03:36:27;7.00;99.90
20204;DHT22;10261;49.010;12.034;2023-04-03T03:37:30;7.00;99.90
20204;DHT22;10261;49.010;12.034;2023-04-03T03:38:34;7.10;99.90
20204;DHT22;10261;49.010;12.034;2023-04-03T03:39:37;7.10;99.90
20204;DHT22;10261;49.010;12.034;2023-04-03T03:40:40;7.00;99.90
20204;DHT22;10261;49.010;12.034;2023-04-03T03:41:42;7.00;99.90
20204;DHT22;10261;49.010;12.034;2023-04-03T03:42:45;7.00;99.90
20204;DHT22;10261;49.010;12.034;2023-04-03T03:43:48;7.00;99.90
20204;DHT22;10261;49.010;12.034;2023-04-03T03:44:51;7.00;99.90
20204;DHT22;10261;49.010;12.034;2023-04-03T03:45:54;7.00;99.90
20204;DHT22;10261;49.010;12.034;2023-04-03T03:46:57;7.00;99.90
20204;DHT22;10261;49.010;12.034;2023-04-03T03:47:59;7.00;99.90
20204;DHT22;10261;49.010;12.034;2023-04-03T03:49:02;6.90;99.90
20204;DHT22;10261;49.010;12.034;2023-04-03T03:50:06;7.00;99.90
20204;DHT22;10261;49.010;12.034;2023-04-03T03:51:09;7.00;99.90
20204;DHT22;10261;49.010;12.034;2023-04-03T03:52:11;6.90;99.90
20204;DHT22;10261;49.010;12.034;2023-04-03T03:53:14;6.90;99.90
20204;DHT22;10261;49.010;12.034;2023-04-03T03:54:18;6.90;99.90
20204;DHT22;10261;49.010;12.034;2023-04-03T03:55:21;6.90;99.90
20204;DHT22;10261;49.010;12.034;2023-04-03T03:56:23;6.90;99.90
20204;DHT22;10261;49.010;12.034;2023-04-03T03:57:26;7.00;99.90
20204;DHT22;10261;49.010;12.034;2023-04-03T03:58:30;7.00;99.90
20204;DHT22;10261;49.010;12.034;2023-04-03T03:59:36;7.10;99.90
20204;DHT22;10261;49.010;12.034;2023-04-03T04:00:37;7.00;99.90
20204;DHT22;10261;49.010;12.034;2023-04-03T04:01:41;7.10;99.90
20204;DHT22;10261;49.010;12.034;2023-04-03T04:02:43;7.00;99.90
20204;DHT22;10261;49.010;12.034;2023-04-03T04:03:46;7.00;99.90
20204;DHT22;10261;49.010;12.034;2023-04-03T04:04:48;6.90;99.90
20204;DHT22;10261;49.010;12.034;2023-04-03T04:05:51;6.90;99.90
20204;DHT22;10261;49.010;12.034;2023-04-03T04:06:53;7.00;99.90
20204;DHT22;10261;49.010;12.034;2023-04-03T04:07:56;7.00;99.90
20204;DHT22;10261;49.010;12.034;2023-04-03T04:08:58;7.00;99.90
20204;DHT22;10261;49.010;12.034;2023-04-03T04:10:03;7.00;99.90
20204;DHT22;10261;49.010;12.034;2023-04-03T04:11:06;7.00;99.90
20204;DHT22;10261;49.010;12.034;2023-04-03T04:12:09;7.00;99.90
20204;DHT22;10261;49.010;12.034;2023-04-03T04:13:12;7.00;99.90
20204;DHT22;10261;49.010;12.034;2023-04-03T04:14:14;7.00;99.90
20204;DHT22;10261;49.010;12.034;2023-04-03T04:15:17;7.00;99.90
20204;DHT22;10261;49.010;12.034;2023-04-03T04:16:19;7.00;99.90
20204;DHT22;10261;49.010;12.034;2023-04-03T04:17:22;7.00;99.90
20204;DHT22;10261;49.010;12.034;2023-04-03T04:18:24;7.00;99.90
20204;DHT22;10261;49.010;12.034;2023-04-03T04:19:27;7.00;99.90
20204;DHT22;10261;49.010;12.034;2023-04-03T04:20:29;7.00;99.90
20204;DHT22;10261;49.010;12.034;2023-04-03T04:21:32;7.00;99.90
20204;DHT22;10261;49.010;12.034;2023-04-03T04:22:34;7.10;99.90
20204;DHT22;10261;49.010;12.034;2023-04-03T04:23:37;7.00;99.90
20204;DHT22;10261;49.010;12.034;2023-04-03T04:24:39;7.00;99.90
20204;DHT22;10261;49.010;12.034;2023-04-03T04:25:45;7.00;99.90
20204;DHT22;10261;49.010;12.034;2023-04-03T04:26:47;6.90;99.90
20204;DHT22;10261;49.010;12.034;2023-04-03T04:27:50;6.80;99.90
20204;DHT22;10261;49.010;12.034;2023-04-03T04:28:52;6.80;99.90
20204;DHT22;10261;49.010;12.034;2023-04-03T04:29:55;6.90;99.90
20204;DHT22;10261;49.010;12.034;2023-04-03T04:31:00;6.90;99.90
20204;DHT22;10261;49.010;12.034;2023-04-03T04:32:03;7.00;99.90
20204;DHT22;10261;49.010;12.034;2023-04-03T04:33:05;7.00;99.90
20204;DHT22;10261;49.010;12.034;2023-04-03T04:34:08;7.00;99.90
20204;DHT22;10261;49.010;12.034;2023-04-03T04:35:11;7.00;99.90
20204;DHT22;10261;49.010;12.034;2023-04-03T04:36:17;6.90;99.90
20204;DHT22;10261;49.010;12.034;2023-04-03T04:37:19;6.90;99.90
20204;DHT22;10261;49.010;12.034;2023-04-03T04:38:22;6.90;99.90
20204;DHT22;10261;49.010;12.034;2023-04-03T04:39:24;6.80;99.90
20204;DHT22;10261;49.010;12.034;2023-04-03T04:40:27;6.80;99.90
20204;DHT22;10261;49.010;12.034;2023-04-03T04:41:30;6.90;99.90
20204;DHT22;10261;49.010;12.034;2023-04-03T04:42:33;6.90;99.90
20204;DHT22;10261;49.010;12.034;2023-04-03T04:43:35;7.00;99.90
20204;DHT22;10261;49.010;12.034;2023-04-03T04:44:38;6.90;99.90
20204;DHT22;10261;49.010;12.034;2023-04-03T04:45:40;6.80;99.90
20204;DHT22;10261;49.010;12.034;2023-04-03T04:46:43;6.90;99.90
20204;DHT22;10261;49.010;12.034;2023-04-03T04:47:45;6.80;99.90
20204;DHT22;10261;49.010;12.034;2023-04-03T04:48:48;6.80;99.90
20204;DHT22;10261;49.010;12.034;2023-04-03T04:49:50;6.80;99.90
20204;DHT22;10261;49.010;12.034;2023-04-03T04:50:53;7.00;99.90
20204;DHT22;10261;49.010;12.034;2023-04-03T04:51:55;6.90;99.90
20204;DHT22;10261;49.010;12.034;2023-04-03T04:52:58;7.00;99.90
20204;DHT22;10261;49.010;12.034;2023-04-03T04:54:00;6.90;99.90
20204;DHT22;10261;49.010;12.034;2023-04-03T04:55:04;6.80;99.90
20204;DHT22;10261;49.010;12.034;2023-04-03T04:56:06;6.90;99.90
20204;DHT22;10261;49.010;12.034;2023-04-03T04:57:11;6.80;99.90
20204;DHT22;10261;49.010;12.034;2023-04-03T04:58:14;6.80;99.90
20204;DHT22;10261;49.010;12.034;2023-04-03T04:59:16;6.80;99.90
20204;DHT22;10261;49.010;12.034;2023-04-03T05:00:22;6.80;99.90
20204;DHT22;10261;49.010;12.034;2023-04-03T05:01:24;6.90;99.90
20204;DHT22;10261;49.010;12.034;2023-04-03T05:02:27;6.80;99.90
20204;DHT22;10261;49.010;12.034;2023-04-03T05:03:29;6.70;99.90
20204;DHT22;10261;49.010;12.034;2023-04-03T05:04:32;6.80;99.90
20204;DHT22;10261;49.010;12.034;2023-04-03T05:05:35;6.80;99.90
20204;DHT22;10261;49.010;12.034;2023-04-03T05:06:39;6.80;99.90
20204;DHT22;10261;49.010;12.034;2023-04-03T05:07:41;5.70;99.90
20204;DHT22;10261;49.010;12.034;2023-04-03T05:08:44;5.50;99.90
20204;DHT22;10261;49.010;12.034;2023-04-03T05:09:46;5.50;99.90
20204;DHT22;10261;49.010;12.034;2023-04-03T05:10:49;5.90;99.90
20204;DHT22;10261;49.010;12.034;2023-04-03T05:11:51;6.20;99.90
20204;DHT22;10261;49.010;12.034;2023-04-03T05:12:55;6.30;99.90
20204;DHT22;10261;49.010;12.034;2023-04-03T05:13:58;6.40;99.90
20204;DHT22;10261;49.010;12.034;2023-04-03T05:15:01;6.50;99.90
20204;DHT22;10261;49.010;12.034;2023-04-03T05:16:03;6.50;99.90
20204;DHT22;10261;49.010;12.034;2023-04-03T05:17:06;6.60;99.90
20204;DHT22;10261;49.010;12.034;2023-04-03T05:18:09;6.60;99.90
20204;DHT22;10261;49.010;12.034;2023-04-03T05:19:11;6.60;99.90
20204;DHT22;10261;49.010;12.034;2023-04-03T05:20:14;6.60;99.90
20204;DHT22;10261;49.010;12.034;2023-04-03T05:21:16;6.60;99.90
20204;DHT22;10261;49.010;12.034;2023-04-03T05:22:20;6.70;99.90
20204;DHT22;10261;49.010;12.034;2023-04-03T05:23:22;7.20;99.90
20204;DHT22;10261;49.010;12.034;2023-04-03T05:24:25;6.80;99.90
20204;DHT22;10261;49.010;12.034;2023-04-03T05:25:27;6.80;99.90
20204;DHT22;10261;49.010;12.034;2023-04-03T05:26:31;6.80;99.90
20204;DHT22;10261;49.010;12.034;2023-04-03T05:27:33;6.80;99.90
20204;DHT22;10261;49.010;12.034;2023-04-03T05:28:37;6.80;99.90
20204;DHT22;10261;49.010;12.034;2023-04-03T05:29:39;6.90;99.90
20204;DHT22;10261;49.010;12.034;2023-04-03T05:30:52;6.90;99.90
20204;DHT22;10261;49.010;12.034;2023-04-03T05:31:56;7.00;99.90
20204;DHT22;10261;49.010;12.034;2023-04-03T05:32:59;7.00;99.90
20204;DHT22;10261;49.010;12.034;2023-04-03T05:34:01;7.00;99.90
20204;DHT22;10261;49.010;12.034;2023-04-03T05:35:05;7.00;99.90
20204;DHT22;10261;49.010;12.034;2023-04-03T05:36:08;7.00;99.90
20204;DHT22;10261;49.010;12.034;2023-04-03T05:37:11;6.90;99.90
20204;DHT22;10261;49.010;12.034;2023-04-03T05:38:13;5.90;99.90
20204;DHT22;10261;49.010;12.034;2023-04-03T05:39:16;7.00;99.90
20204;DHT22;10261;49.010;12.034;2023-04-03T05:40:20;7.00;99.90
20204;DHT22;10261;49.010;12.034;2023-04-03T05:41:22;7.00;99.90
20204;DHT22;10261;49.010;12.034;2023-04-03T05:42:25;7.00;99.90
20204;DHT22;10261;49.010;12.034;2023-04-03T05:43:28;7.00;99.90
20204;DHT22;10261;49.010;12.034;2023-04-03T05:44:31;7.00;99.90
20204;DHT22;10261;49.010;12.034;2023-04-03T05:45:34;7.00;99.90
20204;DHT22;10261;49.010;12.034;2023-04-03T05:46:37;7.00;99.90
20204;DHT22;10261;49.010;12.034;2023-04-03T05:47:39;6.90;99.90
20204;DHT22;10261;49.010;12.034;2023-04-03T05:48:43;6.90;99.90
20204;DHT22;10261;49.010;12.034;2023-04-03T05:49:45;6.90;99.90
20204;DHT22;10261;49.010;12.034;2023-04-03T05:50:48;7.00;99.90
20204;DHT22;10261;49.010;12.034;2023-04-03T05:51:50;6.90;99.90
20204;DHT22;10261;49.010;12.034;2023-04-03T05:52:57;7.00;99.90
20204;DHT22;10261;49.010;12.034;2023-04-03T05:54:04;6.70;99.90
20204;DHT22;10261;49.010;12.034;2023-04-03T05:55:09;6.70;99.90
20204;DHT22;10261;49.010;12.034;2023-04-03T05:56:11;7.10;99.90
20204;DHT22;10261;49.010;12.034;2023-04-03T05:57:14;7.00;99.90
20204;DHT22;10261;49.010;12.034;2023-04-03T05:58:17;6.80;99.90
20204;DHT22;10261;49.010;12.034;2023-04-03T05:59:21;7.10;99.90
20204;DHT22;10261;49.010;12.034;2023-04-03T06:00:24;6.80;99.90
20204;DHT22;10261;49.010;12.034;2023-04-03T06:01:29;6.80;99.90
20204;DHT22;10261;49.010;12.034;2023-04-03T06:02:32;6.80;99.90
20204;DHT22;10261;49.010;12.034;2023-04-03T06:03:35;6.90;99.90
20204;DHT22;10261;49.010;12.034;2023-04-03T06:04:40;7.00;99.90
20204;DHT22;10261;49.010;12.034;2023-04-03T06:05:44;7.10;99.90
20204;DHT22;10261;49.010;12.034;2023-04-03T06:06:47;7.30;99.90
20204;DHT22;10261;49.010;12.034;2023-04-03T06:07:51;7.30;99.90
20204;DHT22;10261;49.010;12.034;2023-04-03T06:08:53;7.40;99.90
20204;DHT22;10261;49.010;12.034;2023-04-03T06:09:56;7.20;99.90
20204;DHT22;10261;49.010;12.034;2023-04-03T06:10:58;6.50;99.90
20204;DHT22;10261;49.010;12.034;2023-04-03T06:12:03;6.30;99.90
20204;DHT22;10261;49.010;12.034;2023-04-03T06:13:06;6.70;99.90
20204;DHT22;10261;49.010;12.034;2023-04-03T06:14:08;6.90;99.90
20204;DHT22;10261;49.010;12.034;2023-04-03T06:15:11;6.90;99.90
20204;DHT22;10261;49.010;12.034;2023-04-03T06:16:15;6.90;99.90
20204;DHT22;10261;49.010;12.034;2023-04-03T06:17:19;6.90;99.90
20204;DHT22;10261;49.010;12.034;2023-04-03T06:18:22;6.90;99.90
20204;DHT22;10261;49.010;12.034;2023-04-03T06:19:25;7.00;99.90
20204;DHT22;10261;49.010;12.034;2023-04-03T06:20:27;7.20;99.90
20204;DHT22;10261;49.010;12.034;2023-04-03T06:21:30;7.30;99.90
20204;DHT22;10261;49.010;12.034;2023-04-03T06:22:33;7.30;99.90
20204;DHT22;10261;49.010;12.034;2023-04-03T06:23:36;7.30;99.90
20204;DHT22;10261;49.010;12.034;2023-04-03T06:24:38;7.30;99.90
20204;DHT22;10261;49.010;12.034;2023-04-03T06:25:41;7.30;99.90
20204;DHT22;10261;49.010;12.034;2023-04-03T06:26:43;7.30;99.90
20204;DHT22;10261;49.010;12.034;2023-04-03T06:27:47;7.30;99.90
20204;DHT22;10261;49.010;12.034;2023-04-03T06:28:50;7.20;99.90
20204;DHT22;10261;49.010;12.034;2023-04-03T06:29:52;7.10;99.90
20204;DHT22;10261;49.010;12.034;2023-04-03T06:30:55;7.10;99.90
20204;DHT22;10261;49.010;12.034;2023-04-03T06:31:58;7.20;99.90
20204;DHT22;10261;49.010;12.034;2023-04-03T06:33:01;7.30;99.90
20204;DHT22;10261;49.010;12.034;2023-04-03T06:34:04;7.30;99.90
20204;DHT22;10261;49.010;12.034;2023-04-03T06:35:10;7.30;99.90
20204;DHT22;10261;49.010;12.034;2023-04-03T06:36:13;7.30;99.90
20204;DHT22;10261;49.010;12.034;2023-04-03T06:37:17;7.30;99.90
20204;DHT22;10261;49.010;12.034;2023-04-03T06:38:20;7.30;99.90
20204;DHT22;10261;49.010;12.034;2023-04-03T06:39:22;7.30;99.90
20204;DHT22;10261;49.010;12.034;2023-04-03T06:40:25;7.40;99.90